sensor_id;sensor_type;location;lat;lon;timestamp;pressure;altitude;pressure_sealevel;temperature;humidity
63907;BME280;50075;49.484;11.238;2022-07-29T00:01:20;97772.50;;;22.35;56.80
63907;BME280;50075;49.484;11.238;2022-07-29T00:03:46;97767.19;;;22.35;57.41
63907;BME280;50075;49.484;11.238;2022-07-29T00:06:11;97779.63;;;22.05;57.86
63907;BME280;50075;49.484;11.238;2022-07-29T00:08:37;97765.78;;;22.11;57.93
63907;BME280;50075;49.484;11.238;2022-07-29T00:11:02;97760.47;;;22.11;57.72
63907;BME280;50075;49.484;11.238;2022-07-29T00:13:27;97756.56;;;22.35;57.14
63907;BME280;50075;49.484;11.238;2022-07-29T00:15:53;97762.44;;;22.29;57.38
63907;BME280;50075;49.484;11.238;2022-07-29T00:18:18;97754.00;;;22.24;57.75
63907;BME280;50075;49.484;11.238;2022-07-29T00:20:44;97753.78;;;21.98;58.29
63907;BME280;50075;49.484;11.238;2022-07-29T00:23:09;97746.81;;;22.26;57.48
63907;BME280;50075;49.484;11.238;2022-07-29T00:25:35;97754.97;;;22.42;57.88
63907;BME280;50075;49.484;11.238;2022-07-29T00:28:00;97757.25;;;22.37;57.27
63907;BME280;50075;49.484;11.238;2022-07-29T00:30:25;97757.94;;;22.20;57.32
63907;BME280;50075;49.484;11.238;2022-07-29T00:32:51;97753.19;;;22.33;57.53
63907;BME280;50075;49.484;11.238;2022-07-29T00:35:16;97748.69;;;22.24;57.77
63907;BME280;50075;49.484;11.238;2022-07-29T00:38:00;97749.38;;;22.45;56.88
63907;BME280;50075;49.484;11.238;2022-07-29T00:40:25;97746.03;;;22.24;58.34
63907;BME280;50075;49.484;11.238;2022-07-29T00:42:51;97753.44;;;22.49;58.38
63907;BME280;50075;49.484;11.238;2022-07-29T00:45:18;97754.53;;;22.57;57.34
63907;BME280;50075;49.484;11.238;2022-07-29T00:47:44;97755.59;;;22.17;56.70
63907;BME280;50075;49.484;11.238;2022-07-29T00:50:11;97753.59;;;22.38;57.14
63907;BME280;50075;49.484;11.238;2022-07-29T00:52:38;97756.66;;;22.24;57.13
63907;BME280;50075;49.484;11.238;2022-07-29T00:55:06;97753.19;;;22.43;58.28
63907;BME280;50075;49.484;11.238;2022-07-29T00:57:32;97744.38;;;22.23;57.30
63907;BME280;50075;49.484;11.238;2022-07-29T00:59:58;97730.81;;;22.16;58.11
63907;BME280;50075;49.484;11.238;2022-07-29T01:02:24;97728.88;;;22.08;57.92
63907;BME280;50075;49.484;11.238;2022-07-29T01:04:50;97723.16;;;22.13;57.35
63907;BME280;50075;49.484;11.238;2022-07-29T01:07:16;97728.34;;;22.05;56.68
63907;BME280;50075;49.484;11.238;2022-07-29T01:09:42;97730.44;;;22.01;57.15
63907;BME280;50075;49.484;11.238;2022-07-29T01:12:10;97727.66;;;21.93;56.47
63907;BME280;50075;49.484;11.238;2022-07-29T01:14:36;97727.50;;;22.04;56.25
63907;BME280;50075;49.484;11.238;2022-07-29T01:25:13;97719.00;;;21.91;56.84
63907;BME280;50075;49.484;11.238;2022-07-29T01:30:35;97716.63;;;21.78;57.34
63907;BME280;50075;49.484;11.238;2022-07-29T01:33:06;97716.47;;;21.99;57.53
63907;BME280;50075;49.484;11.238;2022-07-29T01:35:42;97714.38;;;21.73;57.39
63907;BME280;50075;49.484;11.238;2022-07-29T01:38:13;97717.72;;;21.95;57.47
63907;BME280;50075;49.484;11.238;2022-07-29T01:40:56;97722.47;;;22.01;57.91
63907;BME280;50075;49.484;11.238;2022-07-29T01:46:33;97726.94;;;22.01;57.83
63907;BME280;50075;49.484;11.238;2022-07-29T01:49:12;97731.97;;;22.13;58.40
63907;BME280;50075;49.484;11.238;2022-07-29T01:51:51;97729.41;;;22.22;58.22
63907;BME280;50075;49.484;11.238;2022-07-29T01:57:03;97735.31;;;21.96;58.70
63907;BME280;50075;49.484;11.238;2022-07-29T01:59:30;97729.88;;;21.88;57.77
63907;BME280;50075;49.484;11.238;2022-07-29T02:01:58;97726.91;;;21.42;59.20
63907;BME280;50075;49.484;11.238;2022-07-29T02:04:24;97728.63;;;21.72;57.94
63907;BME280;50075;49.484;11.238;2022-07-29T02:06:52;97716.06;;;21.84;57.58
63907;BME280;50075;49.484;11.238;2022-07-29T02:09:21;97715.34;;;21.92;57.08
63907;BME280;50075;49.484;11.238;2022-07-29T02:11:49;97716.31;;;22.01;57.79
63907;BME280;50075;49.484;11.238;2022-07-29T02:14:18;97720.06;;;22.18;58.73
63907;BME280;50075;49.484;11.238;2022-07-29T02:16:44;97724.41;;;22.19;57.12
63907;BME280;50075;49.484;11.238;2022-07-29T02:19:12;97725.00;;;21.73;57.72
63907;BME280;50075;49.484;11.238;2022-07-29T02:21:38;97711.88;;;21.72;58.17
63907;BME280;50075;49.484;11.238;2022-07-29T02:24:04;97725.56;;;21.77;58.63
63907;BME280;50075;49.484;11.238;2022-07-29T02:26:31;97729.19;;;21.86;58.50
63907;BME280;50075;49.484;11.238;2022-07-29T02:28:58;97731.44;;;21.81;58.68
63907;BME280;50075;49.484;11.238;2022-07-29T02:31:28;97738.13;;;21.46;59.57
63907;BME280;50075;49.484;11.238;2022-07-29T02:33:55;97735.13;;;21.39;61.15
63907;BME280;50075;49.484;11.238;2022-07-29T02:36:23;97733.38;;;21.59;60.21
63907;BME280;50075;49.484;11.238;2022-07-29T02:38:50;97735.06;;;21.60;59.06
63907;BME280;50075;49.484;11.238;2022-07-29T02:41:28;97733.78;;;21.45;59.15
63907;BME280;50075;49.484;11.238;2022-07-29T02:43:57;97726.53;;;21.66;58.48
63907;BME280;50075;49.484;11.238;2022-07-29T02:46:30;97729.06;;;21.58;58.76
63907;BME280;50075;49.484;11.238;2022-07-29T02:49:01;97721.38;;;21.45;58.92
63907;BME280;50075;49.484;11.238;2022-07-29T02:51:36;97725.41;;;21.49;58.97
63907;BME280;50075;49.484;11.238;2022-07-29T02:54:07;97723.59;;;21.50;58.84
63907;BME280;50075;49.484;11.238;2022-07-29T02:56:34;97729.72;;;21.50;58.43
63907;BME280;50075;49.484;11.238;2022-07-29T02:59:04;97717.69;;;21.36;59.89
63907;BME280;50075;49.484;11.238;2022-07-29T03:01:32;97724.66;;;21.37;59.88
63907;BME280;50075;49.484;11.238;2022-07-29T03:04:01;97721.88;;;21.29;60.51
63907;BME280;50075;49.484;11.238;2022-07-29T03:06:28;97719.06;;;21.31;60.93
63907;BME280;50075;49.484;11.238;2022-07-29T03:08:55;97724.50;;;21.29;61.19
63907;BME280;50075;49.484;11.238;2022-07-29T03:11:21;97721.16;;;21.27;61.43
63907;BME280;50075;49.484;11.238;2022-07-29T03:13:47;97727.44;;;21.26;62.01
63907;BME280;50075;49.484;11.238;2022-07-29T03:16:14;97730.84;;;21.48;62.93
63907;BME280;50075;49.484;11.238;2022-07-29T03:18:41;97730.38;;;21.23;62.55
63907;BME280;50075;49.484;11.238;2022-07-29T03:21:06;97721.69;;;21.11;63.49
63907;BME280;50075;49.484;11.238;2022-07-29T03:23:33;97724.50;;;21.20;63.23
63907;BME280;50075;49.484;11.238;2022-07-29T03:25:58;97729.56;;;21.32;62.50
63907;BME280;50075;49.484;11.238;2022-07-29T03:28:24;97722.69;;;21.20;61.95
63907;BME280;50075;49.484;11.238;2022-07-29T03:30:52;97725.34;;;21.20;62.28
63907;BME280;50075;49.484;11.238;2022-07-29T03:33:17;97727.16;;;21.20;62.80
63907;BME280;50075;49.484;11.238;2022-07-29T03:35:43;97720.59;;;21.14;61.95
63907;BME280;50075;49.484;11.238;2022-07-29T03:38:08;97721.66;;;21.02;63.10
63907;BME280;50075;49.484;11.238;2022-07-29T03:40:38;97722.38;;;21.04;63.26
63907;BME280;50075;49.484;11.238;2022-07-29T03:43:07;97728.50;;;21.04;62.69
63907;BME280;50075;49.484;11.238;2022-07-29T03:45:34;97721.22;;;20.96;63.59
63907;BME280;50075;49.484;11.238;2022-07-29T03:48:04;97726.78;;;20.93;63.90
63907;BME280;50075;49.484;11.238;2022-07-29T03:50:30;97721.19;;;20.77;64.24
63907;BME280;50075;49.484;11.238;2022-07-29T03:52:59;97718.19;;;21.11;63.63
63907;BME280;50075;49.484;11.238;2022-07-29T03:55:25;97715.88;;;20.77;64.28
63907;BME280;50075;49.484;11.238;2022-07-29T03:57:51;97715.47;;;20.91;64.34
63907;BME280;50075;49.484;11.238;2022-07-29T04:00:17;97716.50;;;21.10;64.89
63907;BME280;50075;49.484;11.238;2022-07-29T04:02:44;97718.78;;;21.14;64.16
63907;BME280;50075;49.484;11.238;2022-07-29T04:05:14;97721.97;;;21.18;62.69
63907;BME280;50075;49.484;11.238;2022-07-29T04:07:48;97725.50;;;21.38;62.22
63907;BME280;50075;49.484;11.238;2022-07-29T04:10:15;97718.50;;;21.27;62.16
63907;BME280;50075;49.484;11.238;2022-07-29T04:12:42;97724.63;;;21.18;62.44
63907;BME280;50075;49.484;11.238;2022-07-29T04:15:08;97731.59;;;21.19;61.67
63907;BME280;50075;49.484;11.238;2022-07-29T04:17:33;97731.00;;;20.96;63.36
63907;BME280;50075;49.484;11.238;2022-07-29T04:19:59;97734.81;;;21.13;63.68
63907;BME280;50075;49.484;11.238;2022-07-29T04:22:24;97734.00;;;21.32;62.51
63907;BME280;50075;49.484;11.238;2022-07-29T04:24:50;97730.91;;;21.17;63.47
63907;BME280;50075;49.484;11.238;2022-07-29T04:27:15;97739.19;;;20.83;66.09
63907;BME280;50075;49.484;11.238;2022-07-29T04:29:40;97731.25;;;20.83;66.33
63907;BME280;50075;49.484;11.238;2022-07-29T04:32:06;97732.63;;;20.87;65.98
63907;BME280;50075;49.484;11.238;2022-07-29T04:34:31;97736.66;;;20.82;66.46
63907;BME280;50075;49.484;11.238;2022-07-29T04:36:57;97740.38;;;20.69;67.27
63907;BME280;50075;49.484;11.238;2022-07-29T04:39:22;97749.44;;;20.97;66.36
63907;BME280;50075;49.484;11.238;2022-07-29T04:41:48;97749.44;;;20.97;66.72
63907;BME280;50075;49.484;11.238;2022-07-29T04:44:14;97755.53;;;20.88;67.97
63907;BME280;50075;49.484;11.238;2022-07-29T04:46:39;97754.78;;;21.17;66.58
63907;BME280;50075;49.484;11.238;2022-07-29T04:49:05;97757.00;;;21.12;66.77
63907;BME280;50075;49.484;11.238;2022-07-29T04:51:30;97757.38;;;20.97;67.97
63907;BME280;50075;49.484;11.238;2022-07-29T04:53:56;97758.94;;;21.10;67.25
63907;BME280;50075;49.484;11.238;2022-07-29T04:56:21;97756.44;;;20.68;70.13
63907;BME280;50075;49.484;11.238;2022-07-29T04:58:46;97766.50;;;21.14;68.03
63907;BME280;50075;49.484;11.238;2022-07-29T05:01:12;97765.66;;;21.14;67.66
63907;BME280;50075;49.484;11.238;2022-07-29T05:03:39;97763.47;;;21.38;65.79
63907;BME280;50075;49.484;11.238;2022-07-29T05:06:04;97769.03;;;21.16;67.25
63907;BME280;50075;49.484;11.238;2022-07-29T05:08:30;97765.13;;;21.20;67.28
63907;BME280;50075;49.484;11.238;2022-07-29T05:10:55;97767.00;;;20.98;68.71
63907;BME280;50075;49.484;11.238;2022-07-29T05:13:21;97772.69;;;21.25;67.39
63907;BME280;50075;49.484;11.238;2022-07-29T05:15:46;97765.56;;;21.25;66.83
63907;BME280;50075;49.484;11.238;2022-07-29T05:18:11;97767.81;;;20.89;68.14
63907;BME280;50075;49.484;11.238;2022-07-29T05:20:37;97768.69;;;20.99;66.06
63907;BME280;50075;49.484;11.238;2022-07-29T05:23:03;97761.78;;;20.87;68.82
63907;BME280;50075;49.484;11.238;2022-07-29T05:25:29;97763.13;;;21.03;67.09
63907;BME280;50075;49.484;11.238;2022-07-29T05:27:54;97761.66;;;20.89;67.74
63907;BME280;50075;49.484;11.238;2022-07-29T05:30:21;97761.19;;;21.05;68.22
63907;BME280;50075;49.484;11.238;2022-07-29T05:32:46;97761.78;;;21.37;66.42
63907;BME280;50075;49.484;11.238;2022-07-29T05:35:13;97772.69;;;21.34;66.95
63907;BME280;50075;49.484;11.238;2022-07-29T05:37:39;97769.13;;;21.55;65.22
63907;BME280;50075;49.484;11.238;2022-07-29T05:40:06;97776.81;;;21.68;63.93
63907;BME280;50075;49.484;11.238;2022-07-29T05:42:32;97775.28;;;21.85;64.13
63907;BME280;50075;49.484;11.238;2022-07-29T05:44:57;97772.78;;;21.73;63.84
63907;BME280;50075;49.484;11.238;2022-07-29T05:47:23;97775.03;;;21.88;63.28
63907;BME280;50075;49.484;11.238;2022-07-29T05:49:49;97767.53;;;23.07;59.77
63907;BME280;50075;49.484;11.238;2022-07-29T05:52:15;97772.94;;;25.78;50.00
63907;BME280;50075;49.484;11.238;2022-07-29T05:54:40;97772.16;;;26.19;48.53
63907;BME280;50075;49.484;11.238;2022-07-29T05:57:06;97771.69;;;28.44;43.44
63907;BME280;50075;49.484;11.238;2022-07-29T05:59:38;97775.91;;;29.73;40.29
63907;BME280;50075;49.484;11.238;2022-07-29T06:02:04;97776.72;;;28.24;41.22
63907;BME280;50075;49.484;11.238;2022-07-29T06:04:31;97776.09;;;28.60;40.70
63907;BME280;50075;49.484;11.238;2022-07-29T06:06:56;97776.25;;;30.06;39.02
63907;BME280;50075;49.484;11.238;2022-07-29T06:09:21;97767.03;;;32.03;36.18
63907;BME280;50075;49.484;11.238;2022-07-29T06:11:47;97773.59;;;31.19;36.47
63907;BME280;50075;49.484;11.238;2022-07-29T06:14:13;97761.81;;;31.27;35.86
63907;BME280;50075;49.484;11.238;2022-07-29T06:16:38;97772.53;;;31.68;35.21
63907;BME280;50075;49.484;11.238;2022-07-29T06:19:04;97767.78;;;34.01;32.46
63907;BME280;50075;49.484;11.238;2022-07-29T06:21:29;97771.06;;;33.19;32.55
63907;BME280;50075;49.484;11.238;2022-07-29T06:23:55;97775.44;;;34.61;30.57
63907;BME280;50075;49.484;11.238;2022-07-29T06:26:20;97772.69;;;35.42;30.26
63907;BME280;50075;49.484;11.238;2022-07-29T06:28:45;97764.91;;;36.48;28.47
63907;BME280;50075;49.484;11.238;2022-07-29T06:31:11;97771.22;;;35.76;29.82
63907;BME280;50075;49.484;11.238;2022-07-29T06:33:36;97764.97;;;35.27;30.02
63907;BME280;50075;49.484;11.238;2022-07-29T06:36:04;97772.03;;;36.73;28.31
63907;BME280;50075;49.484;11.238;2022-07-29T06:38:30;97770.34;;;37.19;27.25
63907;BME280;50075;49.484;11.238;2022-07-29T06:40:55;97771.63;;;34.44;30.22
63907;BME280;50075;49.484;11.238;2022-07-29T06:43:37;97765.50;;;36.62;28.11
63907;BME280;50075;49.484;11.238;2022-07-29T06:46:05;97773.59;;;38.19;26.71
63907;BME280;50075;49.484;11.238;2022-07-29T06:48:32;97766.06;;;34.57;29.78
63907;BME280;50075;49.484;11.238;2022-07-29T06:50:57;97765.44;;;33.73;30.06
63907;BME280;50075;49.484;11.238;2022-07-29T06:53:23;97766.91;;;35.99;28.76
63907;BME280;50075;49.484;11.238;2022-07-29T06:55:49;97762.06;;;34.85;30.30
63907;BME280;50075;49.484;11.238;2022-07-29T06:58:14;97757.81;;;35.63;29.13
63907;BME280;50075;49.484;11.238;2022-07-29T07:00:43;97757.69;;;36.30;28.65
63907;BME280;50075;49.484;11.238;2022-07-29T07:03:09;97765.84;;;34.84;30.92
63907;BME280;50075;49.484;11.238;2022-07-29T07:05:35;97767.84;;;37.58;28.25
63907;BME280;50075;49.484;11.238;2022-07-29T07:08:00;97767.47;;;38.29;27.13
63907;BME280;50075;49.484;11.238;2022-07-29T07:10:25;97766.31;;;38.08;27.54
63907;BME280;50075;49.484;11.238;2022-07-29T07:12:51;97777.06;;;38.48;27.34
63907;BME280;50075;49.484;11.238;2022-07-29T07:15:16;97772.28;;;34.07;31.56
63907;BME280;50075;49.484;11.238;2022-07-29T07:17:42;97767.50;;;35.89;29.35
63907;BME280;50075;49.484;11.238;2022-07-29T07:20:08;97767.44;;;35.28;30.19
63907;BME280;50075;49.484;11.238;2022-07-29T07:22:33;97766.75;;;35.51;31.21
63907;BME280;50075;49.484;11.238;2022-07-29T07:24:59;97766.19;;;35.92;29.61
63907;BME280;50075;49.484;11.238;2022-07-29T07:27:25;97766.63;;;32.46;34.31
63907;BME280;50075;49.484;11.238;2022-07-29T07:29:51;97759.44;;;33.26;33.85
63907;BME280;50075;49.484;11.238;2022-07-29T07:32:17;97761.72;;;33.67;33.28
63907;BME280;50075;49.484;11.238;2022-07-29T07:34:43;97760.00;;;34.62;31.82
63907;BME280;50075;49.484;11.238;2022-07-29T07:37:08;97754.84;;;35.52;30.44
63907;BME280;50075;49.484;11.238;2022-07-29T07:39:34;97753.81;;;35.17;31.20
63907;BME280;50075;49.484;11.238;2022-07-29T07:42:00;97754.13;;;35.27;31.24
63907;BME280;50075;49.484;11.238;2022-07-29T07:44:26;97768.56;;;35.39;31.09
63907;BME280;50075;49.484;11.238;2022-07-29T07:46:52;97757.72;;;35.02;30.45
63907;BME280;50075;49.484;11.238;2022-07-29T07:49:17;97759.84;;;34.56;31.18
63907;BME280;50075;49.484;11.238;2022-07-29T07:51:43;97763.44;;;33.55;32.73
63907;BME280;50075;49.484;11.238;2022-07-29T07:54:08;97760.13;;;33.53;32.85
63907;BME280;50075;49.484;11.238;2022-07-29T07:56:34;97754.03;;;35.33;30.53
63907;BME280;50075;49.484;11.238;2022-07-29T07:58:59;97754.03;;;37.19;28.79
63907;BME280;50075;49.484;11.238;2022-07-29T08:01:24;97753.34;;;34.83;31.63
63907;BME280;50075;49.484;11.238;2022-07-29T08:03:50;97757.03;;;34.88;31.55
63907;BME280;50075;49.484;11.238;2022-07-29T08:06:15;97752.00;;;33.01;33.79
63907;BME280;50075;49.484;11.238;2022-07-29T08:08:41;97746.94;;;33.25;34.07
63907;BME280;50075;49.484;11.238;2022-07-29T08:11:06;97743.50;;;31.70;36.05
63907;BME280;50075;49.484;11.238;2022-07-29T08:13:32;97741.09;;;32.22;35.75
63907;BME280;50075;49.484;11.238;2022-07-29T08:15:59;97742.94;;;31.95;35.74
63907;BME280;50075;49.484;11.238;2022-07-29T08:18:36;97749.09;;;30.23;38.53
63907;BME280;50075;49.484;11.238;2022-07-29T08:21:01;97749.09;;;30.44;39.17
63907;BME280;50075;49.484;11.238;2022-07-29T08:23:26;97741.81;;;33.93;34.53
63907;BME280;50075;49.484;11.238;2022-07-29T08:26:00;97747.59;;;33.07;36.09
63907;BME280;50075;49.484;11.238;2022-07-29T08:28:25;97742.41;;;36.17;31.50
63907;BME280;50075;49.484;11.238;2022-07-29T08:30:51;97741.06;;;32.56;36.09
63907;BME280;50075;49.484;11.238;2022-07-29T08:33:16;97744.16;;;31.99;36.67
63907;BME280;50075;49.484;11.238;2022-07-29T08:35:41;97742.66;;;31.08;38.24
63907;BME280;50075;49.484;11.238;2022-07-29T08:38:07;97745.41;;;31.90;37.88
63907;BME280;50075;49.484;11.238;2022-07-29T08:40:32;97747.41;;;33.21;36.17
63907;BME280;50075;49.484;11.238;2022-07-29T08:42:59;97746.88;;;34.84;33.75
63907;BME280;50075;49.484;11.238;2022-07-29T08:45:29;97746.91;;;35.69;32.65
63907;BME280;50075;49.484;11.238;2022-07-29T08:47:55;97743.78;;;38.63;28.80
63907;BME280;50075;49.484;11.238;2022-07-29T08:50:20;97734.03;;;36.07;31.62
63907;BME280;50075;49.484;11.238;2022-07-29T08:52:46;97739.63;;;36.59;30.87
63907;BME280;50075;49.484;11.238;2022-07-29T08:55:14;97736.28;;;37.04;30.95
63907;BME280;50075;49.484;11.238;2022-07-29T08:57:40;97738.88;;;39.21;28.38
63907;BME280;50075;49.484;11.238;2022-07-29T09:00:07;97733.81;;;39.57;27.72
63907;BME280;50075;49.484;11.238;2022-07-29T09:02:36;97729.53;;;37.48;30.00
63907;BME280;50075;49.484;11.238;2022-07-29T09:05:04;97732.16;;;38.68;28.32
63907;BME280;50075;49.484;11.238;2022-07-29T09:07:30;97732.94;;;38.12;28.99
63907;BME280;50075;49.484;11.238;2022-07-29T09:09:56;97722.44;;;35.58;32.84
63907;BME280;50075;49.484;11.238;2022-07-29T09:12:22;97726.22;;;39.15;28.93
63907;BME280;50075;49.484;11.238;2022-07-29T09:14:50;97729.34;;;39.73;27.46
63907;BME280;50075;49.484;11.238;2022-07-29T09:17:15;97726.56;;;38.58;28.71
63907;BME280;50075;49.484;11.238;2022-07-29T09:19:43;97727.25;;;36.40;31.33
63907;BME280;50075;49.484;11.238;2022-07-29T09:22:08;97731.00;;;37.96;30.01
63907;BME280;50075;49.484;11.238;2022-07-29T09:24:42;97724.44;;;37.51;29.76
63907;BME280;50075;49.484;11.238;2022-07-29T09:27:26;97721.81;;;35.25;32.53
63907;BME280;50075;49.484;11.238;2022-07-29T09:30:06;97724.13;;;39.22;28.44
63907;BME280;50075;49.484;11.238;2022-07-29T09:32:33;97725.97;;;37.59;31.82
63907;BME280;50075;49.484;11.238;2022-07-29T09:35:23;97727.59;;;37.60;31.17
63907;BME280;50075;49.484;11.238;2022-07-29T09:37:49;97719.06;;;36.16;32.99
63907;BME280;50075;49.484;11.238;2022-07-29T09:40:18;97727.56;;;34.55;34.84
63907;BME280;50075;49.484;11.238;2022-07-29T09:42:44;97717.47;;;38.35;30.31
63907;BME280;50075;49.484;11.238;2022-07-29T09:45:10;97713.94;;;38.34;30.01
63907;BME280;50075;49.484;11.238;2022-07-29T09:47:46;97707.00;;;36.12;32.20
63907;BME280;50075;49.484;11.238;2022-07-29T09:50:14;97712.19;;;36.96;32.06
63907;BME280;50075;49.484;11.238;2022-07-29T09:52:53;97708.75;;;38.33;30.08
63907;BME280;50075;49.484;11.238;2022-07-29T09:55:19;97703.09;;;35.05;33.61
63907;BME280;50075;49.484;11.238;2022-07-29T09:57:46;97711.78;;;34.02;35.65
63907;BME280;50075;49.484;11.238;2022-07-29T10:00:12;97707.72;;;35.35;33.79
63907;BME280;50075;49.484;11.238;2022-07-29T10:02:39;97715.91;;;34.80;34.71
63907;BME280;50075;49.484;11.238;2022-07-29T10:05:16;97711.16;;;33.99;36.19
63907;BME280;50075;49.484;11.238;2022-07-29T10:07:44;97708.59;;;34.55;35.07
63907;BME280;50075;49.484;11.238;2022-07-29T10:10:10;97715.84;;;34.17;35.92
63907;BME280;50075;49.484;11.238;2022-07-29T10:12:48;97710.22;;;35.00;34.76
63907;BME280;50075;49.484;11.238;2022-07-29T10:15:15;97714.50;;;36.28;33.46
63907;BME280;50075;49.484;11.238;2022-07-29T10:17:41;97715.50;;;34.32;35.94
63907;BME280;50075;49.484;11.238;2022-07-29T10:20:08;97707.06;;;34.84;35.73
63907;BME280;50075;49.484;11.238;2022-07-29T10:22:34;97702.31;;;36.66;33.58
63907;BME280;50075;49.484;11.238;2022-07-29T10:24:59;97700.38;;;35.84;34.38
63907;BME280;50075;49.484;11.238;2022-07-29T10:27:25;97705.13;;;33.72;37.32
63907;BME280;50075;49.484;11.238;2022-07-29T10:29:50;97707.56;;;33.80;37.61
63907;BME280;50075;49.484;11.238;2022-07-29T10:35:17;97697.38;;;34.95;36.22
63907;BME280;50075;49.484;11.238;2022-07-29T10:38:07;97696.13;;;34.54;37.28
63907;BME280;50075;49.484;11.238;2022-07-29T10:43:43;97690.03;;;35.32;36.08
63907;BME280;50075;49.484;11.238;2022-07-29T10:46:10;97681.28;;;34.82;36.58
63907;BME280;50075;49.484;11.238;2022-07-29T10:54:15;97678.69;;;33.99;36.90
63907;BME280;50075;49.484;11.238;2022-07-29T10:56:41;97680.19;;;34.64;36.03
63907;BME280;50075;49.484;11.238;2022-07-29T11:01:50;97668.06;;;33.73;38.04
63907;BME280;50075;49.484;11.238;2022-07-29T11:04:40;97668.91;;;32.96;39.31
63907;BME280;50075;49.484;11.238;2022-07-29T11:09:29;97659.06;;;32.37;42.50
63907;BME280;50075;49.484;11.238;2022-07-29T11:11:56;97654.53;;;32.37;41.45
63907;BME280;50075;49.484;11.238;2022-07-29T11:14:56;97650.34;;;32.41;40.59
63907;BME280;50075;49.484;11.238;2022-07-29T11:17:24;97660.78;;;32.04;41.55
63907;BME280;50075;49.484;11.238;2022-07-29T11:19:49;97655.47;;;31.16;43.41
63907;BME280;50075;49.484;11.238;2022-07-29T11:22:34;97650.53;;;31.40;43.37
63907;BME280;50075;49.484;11.238;2022-07-29T11:25:14;97659.41;;;31.20;43.92
63907;BME280;50075;49.484;11.238;2022-07-29T11:27:40;97662.69;;;31.09;43.63
63907;BME280;50075;49.484;11.238;2022-07-29T11:30:06;97661.00;;;31.08;43.91
63907;BME280;50075;49.484;11.238;2022-07-29T11:32:40;97656.41;;;30.95;48.09
63907;BME280;50075;49.484;11.238;2022-07-29T11:35:20;97658.59;;;29.07;71.28
63907;BME280;50075;49.484;11.238;2022-07-29T11:43:47;97654.09;;;28.18;100.00
63907;BME280;50075;49.484;11.238;2022-07-29T11:46:14;97658.91;;;28.38;100.00
63907;BME280;50075;49.484;11.238;2022-07-29T11:48:42;97659.31;;;28.64;100.00
63907;BME280;50075;49.484;11.238;2022-07-29T11:51:10;97649.03;;;28.38;100.00
63907;BME280;50075;49.484;11.238;2022-07-29T11:53:37;97659.00;;;28.30;100.00
63907;BME280;50075;49.484;11.238;2022-07-29T11:56:03;97659.69;;;28.91;92.32
63907;BME280;50075;49.484;11.238;2022-07-29T11:58:30;97651.38;;;29.66;85.94
63907;BME280;50075;49.484;11.238;2022-07-29T12:00:56;97649.19;;;28.96;86.08
63907;BME280;50075;49.484;11.238;2022-07-29T12:03:27;97633.44;;;29.73;72.50
63907;BME280;50075;49.484;11.238;2022-07-29T12:05:52;97640.09;;;29.55;75.73
63907;BME280;50075;49.484;11.238;2022-07-29T12:08:20;97634.41;;;30.85;65.40
63907;BME280;50075;49.484;11.238;2022-07-29T12:10:50;97633.78;;;31.78;59.84
63907;BME280;50075;49.484;11.238;2022-07-29T12:13:20;97629.03;;;31.66;59.31
63907;BME280;50075;49.484;11.238;2022-07-29T12:15:53;97628.75;;;31.21;58.09
63907;BME280;50075;49.484;11.238;2022-07-29T12:18:20;97624.19;;;32.49;53.07
63907;BME280;50075;49.484;11.238;2022-07-29T12:20:47;97634.63;;;32.25;53.91
63907;BME280;50075;49.484;11.238;2022-07-29T12:23:13;97624.63;;;31.39;52.75
63907;BME280;50075;49.484;11.238;2022-07-29T12:25:41;97615.56;;;32.06;50.93
63907;BME280;50075;49.484;11.238;2022-07-29T12:28:12;97620.44;;;32.63;49.03
63907;BME280;50075;49.484;11.238;2022-07-29T12:30:41;97619.88;;;31.94;51.23
63907;BME280;50075;49.484;11.238;2022-07-29T12:35:37;97608.91;;;31.62;51.10
63907;BME280;50075;49.484;11.238;2022-07-29T12:38:03;97599.78;;;31.50;52.57
63907;BME280;50075;49.484;11.238;2022-07-29T12:40:29;97620.38;;;30.20;51.36
63907;BME280;50075;49.484;11.238;2022-07-29T12:43:15;97616.28;;;30.24;56.20
63907;BME280;50075;49.484;11.238;2022-07-29T12:45:46;97617.16;;;29.74;62.59
63907;BME280;50075;49.484;11.238;2022-07-29T12:48:13;97612.94;;;30.22;58.92
63907;BME280;50075;49.484;11.238;2022-07-29T12:50:53;97613.59;;;29.95;60.70
63907;BME280;50075;49.484;11.238;2022-07-29T12:53:19;97613.81;;;30.29;59.18
63907;BME280;50075;49.484;11.238;2022-07-29T12:55:49;97610.47;;;30.27;56.63
63907;BME280;50075;49.484;11.238;2022-07-29T12:58:31;97603.72;;;30.79;53.56
63907;BME280;50075;49.484;11.238;2022-07-29T13:01:04;97595.06;;;30.90;52.69
63907;BME280;50075;49.484;11.238;2022-07-29T13:03:58;97596.84;;;31.45;47.87
63907;BME280;50075;49.484;11.238;2022-07-29T13:09:17;97588.81;;;31.72;46.13
63907;BME280;50075;49.484;11.238;2022-07-29T13:11:43;97585.28;;;31.51;45.85
63907;BME280;50075;49.484;11.238;2022-07-29T13:14:12;97584.69;;;30.87;47.16
63907;BME280;50075;49.484;11.238;2022-07-29T13:22:00;97592.41;;;29.57;51.97
63907;BME280;50075;49.484;11.238;2022-07-29T13:24:26;97611.34;;;29.13;54.50
63907;BME280;50075;49.484;11.238;2022-07-29T13:26:51;97604.34;;;29.33;53.10
63907;BME280;50075;49.484;11.238;2022-07-29T13:29:17;97616.91;;;29.11;53.51
63907;BME280;50075;49.484;11.238;2022-07-29T13:31:43;97632.53;;;29.37;54.30
63907;BME280;50075;49.484;11.238;2022-07-29T13:34:08;97645.59;;;28.74;55.70
63907;BME280;50075;49.484;11.238;2022-07-29T13:36:34;97651.75;;;28.53;57.38
63907;BME280;50075;49.484;11.238;2022-07-29T13:38:59;97666.13;;;28.22;59.08
63907;BME280;50075;49.484;11.238;2022-07-29T13:41:26;97648.94;;;27.56;61.54
63907;BME280;50075;49.484;11.238;2022-07-29T13:43:51;97624.00;;;27.32;63.24